Sanlucar de Barrameda, Spain
Current Conditions -  °F | °C
As of 2:00 PM on Sunday 23 Nov 2014 (Local Time) from LERT Reporting Station
Light Rain Light Rain  
Wind Chill: 68°   Ceiling: Unl
Heat Index: 68°   Visibility: 4mi
Dew Point: 63°   Wind: 7mph
Humidity: 83%   Direction: 220°SW
Pressure: 29.8"   Gusts: NA
Location:  36.78°N, 6.35°W
Report Text: LERT 231300Z 22006KT 6000 -RA NSC 20/17 Q1009 TEMPO RA
Loading
Personal Weather Stations






























Interactive Weather Map New forecast layout! Learn more

10-Day Weather Forecast

Advertisements
Track Severe Weather on mobile